Time;durP1;ratioP1;P1;durP2;ratioP2;P2;SDS_P1;SDS_P2;PMS_P1;PMS_P2;Temp;Humidity;BMP_temperature;BMP_pressure;BME280_temperature;BME280_humidity;BME280_pressure;Samples;Min_cycle;Max_cycle;Signal;HPM_P1;HPM_P2
2022/06/24 00:01:52;;;;;;;;;;;;;;;-147.11;100.00;61570.13;5019729;28;19960;-48
2022/06/24 00:04:22;;;;;;;;;;;;;;;-147.11;100.00;61570.13;5020470;28;20373;-49
2022/06/24 00:06:47;;;;;;;;;;;;;;;-147.11;100.00;61570.13;5024624;28;20385;-51
2022/06/24 00:09:14;;;;;;;;;;;;;;;-147.11;100.00;61570.13;5018915;28;19929;-53
2022/06/24 00:11:39;;;;;;;;;;;;;;;-147.11;100.00;61570.13;5016627;28;20411;-52
2022/06/24 00:14:12;;;;;;;;;;;;;;;-147.11;100.00;61570.13;5023176;28;19913;-54
2022/06/24 00:16:54;;;;;;;;;;;;;;;-147.11;100.00;61570.13;5021586;28;20570;-53
2022/06/24 00:19:20;;;;;;;;;;;;;;;-147.11;100.00;61570.13;5018750;28;19967;-50
2022/06/24 00:21:56;;;;;;;;;;;;;;;-147.11;100.00;61570.13;5021219;28;19932;-51
2022/06/24 00:24:21;;;;;;;;;;;;;;;-147.11;100.00;61570.13;5025102;28;19925;-54
2022/06/24 00:26:47;;;;;;;;;;;;;;;-147.11;100.00;61570.13;5029464;28;20281;-52
2022/06/24 00:29:18;;;;;;;;;;;;;;;-147.11;100.00;61570.13;5022712;28;19925;-51
2022/06/24 00:31:59;;;;;;;;;;;;;;;-147.11;100.00;61570.13;5028910;28;19927;-53
2022/06/24 00:34:24;;;;;;;;;;;;;;;-147.11;100.00;61570.13;5028196;28;19944;-51
2022/06/24 00:36:49;;;;;;;;;;;;;;;-147.11;100.00;61570.13;5030793;28;19961;-49
2022/06/24 00:39:15;;;;;;;;;;;;;;;-147.11;100.00;61570.13;5020676;28;20273;-49
2022/06/24 00:41:40;;;;;;;;;;;;;;;-147.11;100.00;61570.13;5024149;28;19929;-50
2022/06/24 00:44:09;;;;;;;;;;;;;;;-147.11;100.00;61570.13;5019408;28;19921;-50
2022/06/24 00:46:39;;;;;;;;;;;;;;;-147.11;100.00;61570.13;5021718;28;19928;-50
2022/06/24 00:49:07;;;;;;;4.47;3.10;;;;;;;-147.11;100.00;61570.13;5022460;28;20419;-50
2022/06/24 00:51:37;;;;;;;3.22;2.92;;;;;;;-147.11;100.00;61570.13;5025042;28;20036;-48
2022/06/24 00:54:14;;;;;;;4.68;2.97;;;;;;;-147.11;100.00;61570.13;5024189;28;20051;-50
2022/06/24 00:56:41;;;;;;;5.10;2.97;;;;;;;-147.11;100.00;61570.13;5016431;28;20499;-51
2022/06/24 00:59:08;;;;;;;3.78;3.13;;;;;;;-147.11;100.00;61570.13;5030710;28;20033;-51
2022/06/24 01:01:37;;;;;;;6.50;2.90;;;;;;;-147.11;100.00;61570.13;5024370;28;20042;-51
2022/06/24 01:04:03;;;;;;;;;;;;;;;-147.11;100.00;61570.13;5027385;28;19921;-51
2022/06/24 01:06:29;;;;;;;;;;;;;;;-147.11;100.00;61570.13;5030196;28;19976;-51
2022/06/24 01:08:55;;;;;;;;;;;;;;;-147.11;100.00;61570.13;5027979;28;19925;-50
2022/06/24 01:11:23;;;;;;;;;;;;;;;-147.11;100.00;61570.13;5026498;28;19925;-51
2022/06/24 01:13:49;;;;;;;;;;;;;;;-147.11;100.00;61570.13;5029023;28;20436;-50
2022/06/24 01:16:14;;;;;;;;;;;;;;;-147.11;100.00;61570.13;5020813;28;19924;-50
2022/06/24 01:18:39;;;;;;;;;;;;;;;-147.11;100.00;61570.13;5025804;28;19928;-49
2022/06/24 01:21:05;;;;;;;;;;;;;;;-147.11;100.00;61570.13;5025378;28;19922;-49
2022/06/24 01:23:30;;;;;;;;;;;;;;;-147.11;100.00;61570.13;5019875;28;20018;-50
2022/06/24 01:25:55;;;;;;;;;;;;;;;-147.11;100.00;61570.13;5015916;28;19925;-50
2022/06/24 01:28:21;;;;;;;;;;;;;;;-147.11;100.00;61570.13;5025020;28;20604;-49
2022/06/24 01:30:46;;;;;;;;;;;;;;;-147.11;100.00;61570.13;5019895;28;19921;-50
2022/06/24 01:33:11;;;;;;;;;;;;;;;-147.11;100.00;61570.13;5023642;28;20380;-51
2022/06/24 01:35:36;;;;;;;;;;;;;;;-147.11;100.00;61570.13;5028346;28;19921;-49
2022/06/24 01:38:02;;;;;;;;;;;;;;;-147.11;100.00;61570.13;5032904;28;19927;-48
2022/06/24 01:40:27;;;;;;;;;;;;;;;-147.11;100.00;61570.13;5018644;28;19978;-48
2022/06/24 01:42:52;;;;;;;;;;;;;;;-147.11;100.00;61570.13;5023824;28;20018;-51
2022/06/24 01:45:18;;;;;;;;;;;;;;;-147.11;100.00;61570.13;5027511;28;19917;-49
2022/06/24 01:47:43;;;;;;;;;;;;;;;-147.11;100.00;61570.13;5030069;28;19929;-49
2022/06/24 01:50:08;;;;;;;;;;;;;;;-147.11;100.00;61570.13;5029315;28;20027;-51
2022/06/24 01:52:34;;;;;;;;;;;;;;;-147.11;100.00;61570.13;5025947;28;19952;-49
2022/06/24 01:54:59;;;;;;;;;;;;;;;-147.11;100.00;61570.13;5022704;28;20055;-51
2022/06/24 01:57:25;;;;;;;;;;;;;;;-147.11;100.00;61570.13;5025706;28;19932;-49
2022/06/24 01:59:51;;;;;;;;;;;;;;;-147.11;100.00;61570.13;5026339;28;19925;-49
2022/06/24 02:02:16;;;;;;;;;;;;;;;-147.11;100.00;61570.13;5017533;28;19917;-49
2022/06/24 02:04:42;;;;;;;;;;;;;;;-147.11;100.00;61570.13;5007713;28;20327;-51
2022/06/24 02:07:07;;;;;;;;;;;;;;;-147.11;100.00;61570.13;5049494;23;19929;-48
2022/06/24 02:13:26;;;;;;;;;;;;;;;-147.11;100.00;61570.13;5035706;28;19935;-51
2022/06/24 02:15:02;;;;;;;;;;;;;;;-147.11;100.00;61570.13;5041026;28;19927;-52
2022/06/24 02:17:27;;;;;;;;;;;;;;;-147.11;100.00;61570.13;5039349;28;19917;-52
2022/06/24 02:19:52;;;;;;;;;;;;;;;-147.11;100.00;61570.13;5039078;28;19929;-51
2022/06/24 02:22:18;;;;;;;;;;;;;;;-147.11;100.00;61570.13;5041094;28;20034;-54
2022/06/24 02:24:43;;;;;;;;;;;;;;;-147.11;100.00;61570.13;5037384;28;19929;-47
2022/06/24 02:27:08;;;;;;;;;;;;;;;-147.11;100.00;61570.13;5037948;28;20447;-49
2022/06/24 02:29:33;;;;;;;;;;;;;;;-147.11;100.00;61570.13;5039244;28;19933;-52
2022/06/24 02:31:59;;;;;;;;;;;;;;;-147.11;100.00;61570.13;5042969;28;19928;-50
2022/06/24 02:34:24;;;;;;;;;;;;;;;-147.11;100.00;61570.13;5040411;28;20403;-51
2022/06/24 02:36:49;;;;;;;;;;;;;;;-147.11;100.00;61570.13;5026483;28;20401;-49
2022/06/24 02:39:14;;;;;;;;;;;;;;;-147.11;100.00;61570.13;5043145;28;19924;-51
2022/06/24 02:41:40;;;;;;;;;;;;;;;-147.11;100.00;61570.13;5048025;28;19929;-51
2022/06/24 02:44:05;;;;;;;;;;;;;;;-147.11;100.00;61570.13;5035984;28;19929;-52
2022/06/24 02:46:30;;;;;;;;;;;;;;;-147.11;100.00;61570.13;5041183;28;19956;-51
2022/06/24 02:48:56;;;;;;;;;;;;;;;-147.11;100.00;61570.13;5026440;28;19998;-53
2022/06/24 02:51:21;;;;;;;;;;;;;;;-147.11;100.00;61570.13;5037495;28;19920;-51
2022/06/24 02:53:46;;;;;;;;;;;;;;;-147.11;100.00;61570.13;5038097;28;20559;-48
2022/06/24 02:56:13;;;;;;;;;;;;;;;-147.11;100.00;61570.13;5037109;28;19929;-53
2022/06/24 02:58:39;;;;;;;;;;;;;;;-147.11;100.00;61570.13;5043150;28;19939;-55
2022/06/24 03:01:05;;;;;;;;;;;;;;;-147.11;100.00;61570.13;5038667;28;20375;-53
2022/06/24 03:03:30;;;;;;;;;;;;;;;-147.11;100.00;61570.13;5041588;28;19916;-49
2022/06/24 03:05:57;;;;;;;;;;;;;;;-147.11;100.00;61570.13;5044916;28;19925;-52
2022/06/24 03:08:24;;;;;;;;;;;;;;;-147.11;100.00;61570.13;5044066;28;19925;-49
2022/06/24 03:10:50;;;;;;;;;;;;;;;-147.11;100.00;61570.13;5035559;28;20438;-48
2022/06/24 03:13:16;;;;;;;;;;;;;;;-147.11;100.00;61570.13;5034101;28;19991;-48
2022/06/24 03:15:43;;;;;;;;;;;;;;;-147.11;100.00;61570.13;5034334;28;19921;-53
2022/06/24 03:18:08;;;;;;;;;;;;;;;-147.11;100.00;61570.13;5044146;28;19921;-48
2022/06/24 03:20:34;;;;;;;;;;;;;;;-147.11;100.00;61570.13;5042560;28;19921;-53
2022/06/24 03:22:59;;;;;;;;;;;;;;;-147.11;100.00;61570.13;5048117;28;19995;-49
2022/06/24 03:25:25;;;;;;;;;;;;;;;-147.11;100.00;61570.13;5048877;28;20915;-48
2022/06/24 03:27:50;;;;;;;;;;;;;;;-147.11;100.00;61570.13;5034997;28;19927;-52
2022/06/24 03:30:15;;;;;;;;;;;;;;;-147.11;100.00;61570.13;5035608;28;19929;-53
2022/06/24 03:32:41;;;;;;;;;;;;;;;-147.11;100.00;61570.13;5040526;28;20407;-56
2022/06/24 03:35:06;;;;;;;;;;;;;;;-147.11;100.00;61570.13;5034430;28;19916;-49
2022/06/24 03:37:32;;;;;;;;;;;;;;;-147.11;100.00;61570.13;5040323;28;19925;-50
2022/06/24 03:39:58;;;;;;;;;;;;;;;-147.11;100.00;61570.13;5043250;28;20399;-55
2022/06/24 03:42:24;;;;;;;;;;;;;;;-147.11;100.00;61570.13;5045406;28;19924;-48
2022/06/24 03:44:49;;;;;;;;;;;;;;;-147.11;100.00;61570.13;5042567;28;20315;-54
2022/06/24 03:47:14;;;;;;;;;;;;;;;-147.11;100.00;61570.13;5039035;28;19928;-52
2022/06/24 03:49:40;;;;;;;;;;;;;;;-147.11;100.00;61570.13;5042492;28;19940;-52
2022/06/24 03:52:05;;;;;;;;;;;;;;;-147.11;100.00;61570.13;5044593;28;20371;-51
2022/06/24 03:54:31;;;;;;;;;;;;;;;-147.11;100.00;61570.13;5037520;28;19931;-53
2022/06/24 03:56:56;;;;;;;;;;;;;;;-147.11;100.00;61570.13;5040871;28;19920;-51
2022/06/24 03:59:21;;;;;;;;;;;;;;;-147.11;100.00;61570.13;5042076;28;19924;-53
2022/06/24 04:01:47;;;;;;;;;;;;;;;-147.11;100.00;61570.13;5037584;28;20019;-53
2022/06/24 04:04:12;;;;;;;;;;;;;;;-147.11;100.00;61570.13;5038743;28;20294;-48
2022/06/24 04:06:37;;;;;;;;;;;;;;;-147.11;100.00;61570.13;5043402;28;20279;-51
2022/06/24 04:09:03;;;;;;;;;;;;;;;-147.11;100.00;61570.13;5041501;28;19928;-49
2022/06/24 04:11:28;;;;;;;;;;;;;;;-147.11;100.00;61570.13;5039471;28;20512;-51
2022/06/24 04:13:53;;;;;;;;;;;;;;;-147.11;100.00;61570.13;5040237;28;20048;-50
2022/06/24 04:16:20;;;;;;;;;;;;;;;-147.11;100.00;61570.13;5042281;28;19925;-54
2022/06/24 04:18:47;;;;;;;;;;;;;;;-147.11;100.00;61570.13;5044715;28;19929;-50
2022/06/24 04:21:14;;;;;;;;;;;;;;;-147.11;100.00;61570.13;5027646;28;19956;-49
2022/06/24 04:23:40;;;;;;;;;;;;;;;-147.11;100.00;61570.13;5040428;28;19936;-56
2022/06/24 04:26:06;;;;;;;;;;;;;;;-147.11;100.00;61570.13;5036441;28;19921;-53
2022/06/24 04:28:31;;;;;;;;;;;;;;;-147.11;100.00;61570.13;5030662;28;19929;-51
2022/06/24 04:30:56;;;;;;;;;;;;;;;-147.11;100.00;61570.13;5034335;28;19941;-51
2022/06/24 04:33:21;;;;;;;;;;;;;;;-147.11;100.00;61570.13;5037481;28;20380;-54
2022/06/24 04:35:47;;;;;;;;;;;;;;;-147.11;100.00;61570.13;5044339;28;19935;-48
2022/06/24 04:38:13;;;;;;;;;;;;;;;-147.11;100.00;61570.13;5039013;28;19971;-52
2022/06/24 04:40:38;;;;;;;;;;;;;;;-147.11;100.00;61570.13;5044830;28;19960;-50
2022/06/24 04:43:03;;;;;;;;;;;;;;;-147.11;100.00;61570.13;5030056;28;20354;-53
2022/06/24 04:45:29;;;;;;;;;;;;;;;-147.11;100.00;61570.13;5035659;28;19955;-54
2022/06/24 04:47:54;;;;;;;;;;;;;;;-147.11;100.00;61570.13;5033806;28;19975;-54
2022/06/24 04:50:20;;;;;;;;;;;;;;;-147.11;100.00;61570.13;5044235;28;19971;-48
2022/06/24 04:52:45;;;;;;;;;;;;;;;-147.11;100.00;61570.13;5031597;28;19925;-52
2022/06/24 04:55:10;;;;;;;;;;;;;;;-147.11;100.00;61570.13;5044247;28;19931;-52
2022/06/24 04:57:36;;;;;;;;;;;;;;;-147.11;100.00;61570.13;5041093;28;19924;-51
2022/06/24 05:00:02;;;;;;;;;;;;;;;-147.11;100.00;61570.13;5041122;28;19925;-54
2022/06/24 05:02:27;;;;;;;;;;;;;;;-147.11;100.00;61570.13;5033879;28;19921;-50
2022/06/24 05:04:53;;;;;;;;;;;;;;;-147.11;100.00;61570.13;5034739;28;19970;-52
2022/06/24 05:07:18;;;;;;;;;;;;;;;-147.11;100.00;61570.13;5042665;28;19936;-54
2022/06/24 05:09:45;;;;;;;;;;;;;;;-147.11;100.00;61570.13;5041295;28;19925;-53
2022/06/24 05:12:10;;;;;;;;;;;;;;;-147.11;100.00;61570.13;5037790;28;19948;-54
2022/06/24 05:14:35;;;;;;;;;;;;;;;-147.11;100.00;61570.13;5044698;28;20359;-52
2022/06/24 05:17:01;;;;;;;;;;;;;;;-147.11;100.00;61570.13;5046615;28;19924;-47
2022/06/24 05:19:26;;;;;;;;;;;;;;;-147.11;100.00;61570.13;5047408;28;19925;-51
2022/06/24 05:21:52;;;;;;;;;;;;;;;-147.11;100.00;61570.13;5044456;28;19921;-49
2022/06/24 05:24:17;;;;;;;;;;;;;;;-147.11;100.00;61570.13;5046765;28;20034;-54
2022/06/24 05:26:43;;;;;;;;;;;;;;;-147.11;100.00;61570.13;5045677;28;20013;-48
2022/06/24 05:29:09;;;;;;;;;;;;;;;-147.11;100.00;61570.13;5040465;28;19932;-52
2022/06/24 05:31:34;;;;;;;;;;;;;;;-147.11;100.00;61570.13;5043566;28;19956;-55
2022/06/24 05:34:00;;;;;;;;;;;;;;;-147.11;100.00;61570.13;5051110;28;19916;-50
2022/06/24 05:36:25;;;;;;;;;;;;;;;-147.11;100.00;61570.13;5040885;28;19925;-53
2022/06/24 05:38:50;;;;;;;;;;;;;;;-147.11;100.00;61570.13;5044775;28;19924;-56
2022/06/24 05:41:16;;;;;;;;;;;;;;;-147.11;100.00;61570.13;5049246;28;20326;-51
2022/06/24 05:43:43;;;;;;;;;;;;;;;-147.11;100.00;61570.13;5044530;28;20392;-55
2022/06/24 05:46:09;;;;;;;;;;;;;;;-147.11;100.00;61570.13;5037719;28;19927;-53
2022/06/24 05:48:34;;;;;;;;;;;;;;;-147.11;100.00;61570.13;5041722;28;19928;-50
2022/06/24 05:51:06;;;;;;;;;;;;;;;-147.11;100.00;61570.13;5032513;28;19951;-52
2022/06/24 05:56:15;;;;;;;;;;;;;;;-147.11;100.00;61570.13;5035350;28;20348;-52
2022/06/24 05:58:40;;;;;;;;;;;;;;;-147.11;100.00;61570.13;5037729;28;20450;-48
2022/06/24 06:01:11;;;;;;;;;;;;;;;-147.11;100.00;61570.13;5047797;28;19921;-49
2022/06/24 06:03:37;;;;;;;;;;;;;;;-147.11;100.00;61570.13;5034774;28;20046;-51
2022/06/24 06:06:03;;;;;;;;;;;;;;;-147.11;100.00;61570.13;5033646;28;20330;-50
2022/06/24 06:08:28;;;;;;;;;;;;;;;-147.11;100.00;61570.13;5039794;28;20020;-49
2022/06/24 06:10:53;;;;;;;;;;;;;;;-147.11;100.00;61570.13;5046057;28;19931;-49
2022/06/24 06:13:19;;;;;;;;;;;;;;;-147.11;100.00;61570.13;5039020;28;19955;-50
2022/06/24 06:15:45;;;;;;;;;;;;;;;-147.11;100.00;61570.13;5053119;28;20015;-49
2022/06/24 06:18:10;;;;;;;;;;;;;;;-147.11;100.00;61570.13;5034435;28;19925;-50
2022/06/24 06:20:36;;;;;;;;;;;;;;;-147.11;100.00;61570.13;5034882;28;20027;-54
2022/06/24 06:23:01;;;;;;;;;;;;;;;-147.11;100.00;61570.13;5043241;28;19952;-50
2022/06/24 06:25:27;;;;;;;;;;;;;;;-147.11;100.00;61570.13;5037860;28;19917;-49
2022/06/24 06:27:52;;;;;;;;;;;;;;;-147.11;100.00;61570.13;5042738;28;19927;-54
2022/06/24 06:30:17;;;;;;;;;;;;;;;-147.11;100.00;61570.13;5034964;28;19929;-49
2022/06/24 06:32:43;;;;;;;;;;;;;;;-147.11;100.00;61570.13;5037538;28;19932;-49
2022/06/24 06:35:08;;;;;;;;;;;;;;;-147.11;100.00;61570.13;5046903;28;19921;-51
2022/06/24 06:37:34;;;;;;;;;;;;;;;-147.11;100.00;61570.13;5042953;28;20304;-49
2022/06/24 06:39:59;;;;;;;;;;;;;;;-147.11;100.00;61570.13;5045408;28;19923;-49
2022/06/24 06:42:24;;;;;;;;;;;;;;;-147.11;100.00;61570.13;5046870;28;19921;-51
2022/06/24 06:44:50;;;;;;;;;;;;;;;-147.11;100.00;61570.13;5046275;28;20006;-49
2022/06/24 06:47:15;;;;;;;;;;;;;;;-147.11;100.00;61570.13;5043615;28;19916;-50
2022/06/24 06:49:41;;;;;;;;;;;;;;;-147.11;100.00;61570.13;5044309;28;19928;-53
2022/06/24 06:52:06;;;;;;;;;;;;;;;-147.11;100.00;61570.13;5049536;28;20299;-54
2022/06/24 06:54:32;;;;;;;;;;;;;;;-147.11;100.00;61570.13;5048358;28;19946;-49
2022/06/24 06:56:57;;;;;;;;;;;;;;;-147.11;100.00;61570.13;5049195;28;19928;-50
2022/06/24 06:59:22;;;;;;;;;;;;;;;-147.11;100.00;61570.13;5046368;28;19921;-49
2022/06/24 07:01:48;;;;;;;;;;;;;;;-147.11;100.00;61570.13;5049480;28;19920;-49
2022/06/24 07:04:14;;;;;;;;;;;;;;;-147.11;100.00;61570.13;5046926;28;19982;-51
2022/06/24 07:06:39;;;;;;;;;;;;;;;-147.11;100.00;61570.13;5044043;28;19964;-49
2022/06/24 07:09:05;;;;;;;;;;;;;;;-147.11;100.00;61570.13;5046825;28;20410;-49
2022/06/24 07:11:30;;;;;;;;;;;;;;;-147.11;100.00;61570.13;5043629;28;19936;-49
2022/06/24 07:13:55;;;;;;;;;;;;;;;-147.11;100.00;61570.13;5041763;28;20439;-50
2022/06/24 07:16:21;;;;;;;;;;;;;;;-147.11;100.00;61570.13;5042611;28;19925;-53
2022/06/24 07:18:46;;;;;;;;;;;;;;;-147.11;100.00;61570.13;5056120;28;19925;-54
2022/06/24 07:21:12;;;;;;;;;;;;;;;-147.11;100.00;61570.13;5048267;28;19928;-50
2022/06/24 07:23:38;;;;;;;;;;;;;;;-147.11;100.00;61570.13;5052428;28;19999;-51
2022/06/24 07:26:03;;;;;;;;;;;;;;;-147.11;100.00;61570.13;5045585;28;20027;-50
2022/06/24 07:28:28;;;;;;;;;;;;;;;-147.11;100.00;61570.13;5048647;28;20391;-51
2022/06/24 07:30:54;;;;;;;;;;;;;;;-147.11;100.00;61570.13;5045969;28;20323;-51
2022/06/24 07:33:19;;;;;;;;;;;;;;;-147.11;100.00;61570.13;5054112;28;19993;-51
2022/06/24 07:35:45;;;;;;;;;;;;;;;-147.11;100.00;61570.13;5049125;28;20295;-49
2022/06/24 07:38:10;;;;;;;;;;;;;;;-147.11;100.00;61570.13;5049470;28;20007;-51
2022/06/24 07:40:35;;;;;;;;;;;;;;;-147.11;100.00;61570.13;5047980;28;19917;-49
2022/06/24 07:43:00;;;;;;;;;;;;;;;-147.11;100.00;61570.13;5051725;28;20294;-51
2022/06/24 07:45:26;;;;;;;;;;;;;;;-147.11;100.00;61570.13;5048207;28;19920;-50
2022/06/24 07:47:52;;;;;;;;;;;;;;;-147.11;100.00;61570.13;5051684;28;20280;-49
2022/06/24 07:50:17;;;;;;;;;;;;;;;-147.11;100.00;61570.13;5044643;28;19933;-49
2022/06/24 07:52:42;;;;;;;;;;;;;;;-147.11;100.00;61570.13;5045329;28;19932;-52
2022/06/24 07:57:51;;;;;;;;;;;;;;;-147.11;100.00;61570.13;5046396;28;19927;-49
2022/06/24 08:00:17;;;;;;;;;;;;;;;-147.11;100.00;61570.13;5049686;28;20390;-50
2022/06/24 08:02:42;;;;;;;;;;;;;;;-147.11;100.00;61570.13;5043494;28;19917;-51
2022/06/24 08:05:08;;;;;;;;;;;;;;;-147.11;100.00;61570.13;5041938;28;19920;-52
2022/06/24 08:07:33;;;;;;;;;;;;;;;-147.11;100.00;61570.13;5048466;28;19924;-49
2022/06/24 08:09:58;;;;;;;;;;;;;;;-147.11;100.00;61570.13;5047596;28;20023;-49
2022/06/24 08:12:24;;;;;;;;;;;;;;;-147.11;100.00;61570.13;5043427;28;20311;-50
2022/06/24 08:14:49;;;;;;;;;;;;;;;-147.11;100.00;61570.13;5048811;28;19948;-54
2022/06/24 08:17:14;;;;;;;;;;;;;;;-147.11;100.00;61570.13;5042422;28;19928;-52
2022/06/24 08:19:39;;;;;;;;;;;;;;;-147.11;100.00;61570.13;5034489;28;19925;-49
2022/06/24 08:22:05;;;;;;;;;;;;;;;-147.11;100.00;61570.13;5042264;28;19970;-49
2022/06/24 08:24:30;;;;;;;;;;;;;;;-147.11;100.00;61570.13;5055880;28;20280;-50
2022/06/24 08:26:56;;;;;;;;;;;;;;;-147.11;100.00;61570.13;5041878;28;19963;-53
2022/06/24 08:29:21;;;;;;;;;;;;;;;-147.11;100.00;61570.13;5048248;28;20295;-52
2022/06/24 08:31:46;;;;;;;;;;;;;;;-147.11;100.00;61570.13;5051685;28;21327;-49
2022/06/24 08:34:11;;;;;;;;;;;;;;;-147.11;100.00;61570.13;5045743;28;20011;-49
2022/06/24 08:36:37;;;;;;;;;;;;;;;-147.11;100.00;61570.13;5044128;28;19932;-49
2022/06/24 08:39:03;;;;;;;;;;;;;;;-147.11;100.00;61570.13;5046854;28;19916;-50
2022/06/24 08:41:28;;;;;;;;;;;;;;;-147.11;100.00;61570.13;5048645;28;19944;-52
2022/06/24 08:43:54;;;;;;;;;;;;;;;-147.11;100.00;61570.13;5037062;28;19925;-50
2022/06/24 08:46:20;;;;;;;;;;;;;;;-147.11;100.00;61570.13;5047360;28;19921;-53
2022/06/24 08:48:45;;;;;;;;;;;;;;;-147.11;100.00;61570.13;5046314;28;20276;-51
2022/06/24 08:51:14;;;;;;;;;;;;;;;-147.11;100.00;61570.13;5049347;28;19916;-50
2022/06/24 08:53:39;;;;;;;;;;;;;;;-147.11;100.00;61570.13;5051360;28;19917;-50
2022/06/24 08:56:06;;;;;;;;;;;;;;;-147.11;100.00;61570.13;5046004;28;20364;-50
2022/06/24 08:58:32;;;;;;;;;;;;;;;-147.11;100.00;61570.13;5052851;28;20035;-50
2022/06/24 09:00:58;;;;;;;;;;;;;;;-147.11;100.00;61570.13;5049775;28;20460;-49
2022/06/24 09:03:23;;;;;;;;;;;;;;;-147.11;100.00;61570.13;5050187;28;20308;-49
2022/06/24 09:05:48;;;;;;;;;;;;;;;-147.11;100.00;61570.13;5057269;28;19966;-54
2022/06/24 09:08:14;;;;;;;;;;;;;;;-147.11;100.00;61570.13;5045754;28;19967;-50
2022/06/24 09:10:43;;;;;;;;;;;;;;;-147.11;100.00;61570.13;5049192;28;20392;-49
2022/06/24 09:13:21;;;;;;;;;;;;;;;-147.11;100.00;61570.13;5067747;28;20296;-50
2022/06/24 09:15:53;;;;;;;;;;;;;;;-147.11;100.00;61570.13;5046782;28;19970;-49
2022/06/24 09:18:22;;;;;;;;;;;;;;;-147.11;100.00;61570.13;5051687;28;19919;-50
2022/06/24 09:20:48;;;;;;;;;;;;;;;-147.11;100.00;61570.13;5041252;28;20399;-53
2022/06/24 09:23:14;;;;;;;;;;;;;;;-147.11;100.00;61570.13;5046319;28;19917;-50
2022/06/24 09:25:48;;;;;;;;;;;;;;;-147.11;100.00;61570.13;5053595;28;20303;-50
2022/06/24 09:28:27;;;;;;;;;;;;;;;-147.11;100.00;61570.13;5051674;28;20011;-49
2022/06/24 09:31:06;;;;;;;;;;;;;;;-147.11;100.00;61570.13;5048826;28;19924;-48
2022/06/24 09:33:42;;;;;;;;;;;;;;;-147.11;100.00;61570.13;5051445;28;19920;-48
2022/06/24 09:36:08;;;;;;;;;;;;;;;-147.11;100.00;61570.13;5047582;28;20350;-51
2022/06/24 09:38:53;;;;;;;;;;;;;;;-147.11;100.00;61570.13;5048030;28;19952;-49
2022/06/24 09:41:18;;;;;;;;;;;;;;;-147.11;100.00;61570.13;5048874;28;19917;-50
2022/06/24 09:43:43;;;;;;;;;;;;;;;-147.11;100.00;61570.13;5045031;28;19925;-49
2022/06/24 09:46:16;;;;;;;;;;;;;;;-147.11;100.00;61570.13;5048907;28;19921;-49
2022/06/24 09:48:41;;;;;;;;;;;;;;;-147.11;100.00;61570.13;5050920;28;19929;-49
2022/06/24 09:51:07;;;;;;;;;;;;;;;-147.11;100.00;61570.13;5049731;28;19936;-52
2022/06/24 09:53:38;;;;;;;;;;;;;;;-147.11;100.00;61570.13;5046151;28;20327;-49
2022/06/24 09:56:04;;;;;;;;;;;;;;;-147.11;100.00;61570.13;5047498;28;20356;-49
2022/06/24 09:58:29;;;;;;;;;;;;;;;-147.11;100.00;61570.13;5038835;28;19936;-52
2022/06/24 10:00:55;;;;;;;;;;;;;;;-147.11;100.00;61570.13;5039438;28;20353;-52
2022/06/24 10:03:20;;;;;;;;;;;;;;;-147.11;100.00;61570.13;5041971;28;19998;-49
2022/06/24 10:05:46;;;;;;;;;;;;;;;-147.11;100.00;61570.13;5046369;28;19960;-49
2022/06/24 10:08:14;;;;;;;;;;;;;;;-147.11;100.00;61570.13;5028124;28;20004;-49
2022/06/24 10:10:50;;;;;;;;;;;;;;;-147.11;100.00;61570.13;5034803;28;20525;-49
2022/06/24 10:13:37;;;;;;;;;;;;;;;-147.11;100.00;61570.13;5037705;28;19924;-55
2022/06/24 10:16:04;;;;;;;;;;;;;;;-147.11;100.00;61570.13;5052402;28;19925;-49
2022/06/24 10:18:34;;;;;;;;;;;;;;;-147.11;100.00;61570.13;5050035;28;20401;-52
2022/06/24 10:21:01;;;;;;;;;;;;;;;-147.11;100.00;61570.13;5050549;28;19921;-49
2022/06/24 10:23:38;;;;;;;;;;;;;;;-147.11;100.00;61570.13;5054550;28;19927;-50
2022/06/24 10:26:13;;;;;;;;;;;;;;;-147.11;100.00;61570.13;5044504;28;19925;-49
2022/06/24 10:28:57;;;;;;;;;;;;;;;-147.11;100.00;61570.13;5049191;28;19929;-49
2022/06/24 10:31:48;;;;;;;;;;;;;;;-147.11;100.00;61570.13;5047650;28;19913;-52
2022/06/24 10:34:22;;;;;;;;;;;;;;;-147.11;100.00;61570.13;5050795;28;20386;-49
2022/06/24 10:36:50;;;;;;;;;;;;;;;-147.11;100.00;61570.13;5050739;28;20008;-51
2022/06/24 10:39:18;;;;;;;;;;;;;;;-147.11;100.00;61570.13;5051841;28;19916;-51
2022/06/24 10:41:44;;;;;;;;;;;;;;;-147.11;100.00;61570.13;5048924;28;20023;-49
2022/06/24 10:44:44;;;;;;;;;;;;;;;-147.11;100.00;61570.13;5048871;28;19917;-49
2022/06/24 10:47:12;;;;;;;;;;;;;;;-147.11;100.00;61570.13;5044431;28;19968;-54
2022/06/24 10:49:54;;;;;;;;;;;;;;;-147.11;100.00;61570.13;5039969;28;20372;-50
2022/06/24 10:52:39;;;;;;;;;;;;;;;-147.11;100.00;61570.13;5052264;28;19916;-50
2022/06/24 10:57:46;;;;;;;;;;;;;;;-147.11;100.00;61570.13;5049612;28;19917;-50
2022/06/24 11:00:12;;;;;;;;;;;;;;;-147.11;100.00;61570.13;5046911;28;19936;-49
2022/06/24 11:02:37;;;;;;;;;;;;;;;-147.11;100.00;61570.13;5049593;28;19920;-49
2022/06/24 11:05:06;;;;;;;;;;;;;;;-147.11;100.00;61570.13;5053380;28;19967;-51
2022/06/24 11:07:31;;;;;;;;;;;;;;;-147.11;100.00;61570.13;5050555;28;19931;-50
2022/06/24 11:09:56;;;;;;;;;;;;;;;-147.11;100.00;61570.13;5050996;28;19925;-49
2022/06/24 11:12:29;;;;;;;;;;;;;;;-147.11;100.00;61570.13;5051722;28;20332;-50
2022/06/24 11:14:55;;;;;;;;;;;;;;;-147.11;100.00;61570.13;5050854;28;19928;-51
2022/06/24 11:17:24;;;;;;;;;;;;;;;-147.11;100.00;61570.13;5050394;28;19913;-48
2022/06/24 11:19:50;;;;;;;;;;;;;;;-147.11;100.00;61570.13;5047453;28;19928;-49
2022/06/24 11:22:15;;;;;;;;;;;;;;;-147.11;100.00;61570.13;5052523;28;19913;-51
2022/06/24 11:24:42;;;;;;;;;;;;;;;-147.11;100.00;61570.13;5046598;28;20345;-49
2022/06/24 11:27:08;;;;;;;;;;;;;;;-147.11;100.00;61570.13;5049944;28;19913;-49
2022/06/24 11:29:48;;;;;;;;;;;;;;;-147.11;100.00;61570.13;5049736;28;19921;-52
2022/06/24 11:32:14;;;;;;;;;;;;;;;-147.11;100.00;61570.13;5051011;28;19925;-51
2022/06/24 11:34:39;;;;;;;;;;;;;;;-147.11;100.00;61570.13;5048105;28;19927;-50
2022/06/24 11:37:05;;;;;;;;;;;;;;;-147.11;100.00;61570.13;5046953;28;20293;-49
2022/06/24 11:39:32;;;;;;;;;;;;;;;-147.11;100.00;61570.13;5038507;28;19917;-51
2022/06/24 11:41:57;;;;;;;;;;;;;;;-147.11;100.00;61570.13;5035582;28;19924;-49
2022/06/24 11:44:32;;;;;;;;;;;;;;;-147.11;100.00;61570.13;5040905;28;19916;-49
2022/06/24 11:46:58;;;;;;;;;;;;;;;-147.11;100.00;61570.13;5050482;28;19927;-50
2022/06/24 11:49:23;;;;;;;;;;;;;;;-147.11;100.00;61570.13;5051887;28;19929;-54
2022/06/24 11:51:48;;;;;;;;;;;;;;;-147.11;100.00;61570.13;5047715;28;19925;-53
2022/06/24 11:54:14;;;;;;;;;;;;;;;-147.11;100.00;61570.13;5050535;28;19924;-52
2022/06/24 11:56:40;;;;;;;;;;;;;;;-147.11;100.00;61570.13;5049437;28;19928;-53
2022/06/24 11:59:06;;;;;;;;;;;;;;;-147.11;100.00;61570.13;5049158;28;19920;-53
2022/06/24 12:01:32;;;;;;;;;;;;;;;-147.11;100.00;61570.13;5046350;28;20316;-52
2022/06/24 12:03:59;;;;;;;;;;;;;;;-147.11;100.00;61570.13;5048952;28;19913;-53
2022/06/24 12:06:24;;;;;;;;;;;;;;;-147.11;100.00;61570.13;5038112;28;19925;-52
2022/06/24 12:08:51;;;;;;;;;;;;;;;-147.11;100.00;61570.13;5035213;28;19921;-53
2022/06/24 12:11:17;;;;;;;;;;;;;;;-147.11;100.00;61570.13;5048560;28;19920;-51
2022/06/24 12:13:54;;;;;;;;;;;;;;;-147.11;100.00;61570.13;5051723;28;19916;-52
2022/06/24 12:16:20;;;;;;;;;;;;;;;-147.11;100.00;61570.13;5052012;28;20372;-52
2022/06/24 12:18:45;;;;;;;;;;;;;;;-147.11;100.00;61570.13;5053975;28;19978;-52
2022/06/24 12:21:10;;;;;;;;;;;;;;;-147.11;100.00;61570.13;5051941;28;19921;-53
2022/06/24 12:23:41;;;;;;;;;;;;;;;-147.11;100.00;61570.13;5051418;28;19921;-51
2022/06/24 12:26:07;;;;;;;;;;;;;;;-147.11;100.00;61570.13;5052832;28;20007;-51